sensor_id;sensor_type;location;lat;lon;timestamp;pressure;altitude;pressure_sealevel;temperature
8227;BMP180;4154;48.810;9.012;2022-09-21T00:01:21;97839.00;;;7.60
8227;BMP180;4154;48.810;9.012;2022-09-21T00:03:52;97835.00;;;7.60
8227;BMP180;4154;48.810;9.012;2022-09-21T00:06:20;97836.00;;;7.60
8227;BMP180;4154;48.810;9.012;2022-09-21T00:08:47;97835.00;;;7.50
8227;BMP180;4154;48.810;9.012;2022-09-21T00:11:19;97834.00;;;7.50
8227;BMP180;4154;48.810;9.012;2022-09-21T00:13:45;97835.00;;;7.50
8227;BMP180;4154;48.810;9.012;2022-09-21T00:16:14;97838.00;;;7.50
8227;BMP180;4154;48.810;9.012;2022-09-21T00:18:40;97833.00;;;7.50
8227;BMP180;4154;48.810;9.012;2022-09-21T00:21:08;97832.00;;;7.50
8227;BMP180;4154;48.810;9.012;2022-09-21T00:23:35;97827.00;;;7.40
8227;BMP180;4154;48.810;9.012;2022-09-21T00:26:15;97826.00;;;7.40
8227;BMP180;4154;48.810;9.012;2022-09-21T00:28:42;97838.00;;;7.50
8227;BMP180;4154;48.810;9.012;2022-09-21T00:31:12;97838.00;;;7.40
8227;BMP180;4154;48.810;9.012;2022-09-21T00:33:41;97828.00;;;7.40
8227;BMP180;4154;48.810;9.012;2022-09-21T00:36:15;97828.00;;;7.40
8227;BMP180;4154;48.810;9.012;2022-09-21T00:38:43;97834.00;;;7.40
8227;BMP180;4154;48.810;9.012;2022-09-21T00:41:11;97833.00;;;7.50
8227;BMP180;4154;48.810;9.012;2022-09-21T00:43:44;97836.00;;;7.40
8227;BMP180;4154;48.810;9.012;2022-09-21T00:46:31;97829.00;;;7.30
8227;BMP180;4154;48.810;9.012;2022-09-21T00:48:58;97823.00;;;7.20
8227;BMP180;4154;48.810;9.012;2022-09-21T00:51:24;97835.00;;;7.10
8227;BMP180;4154;48.810;9.012;2022-09-21T00:53:59;97828.00;;;7.10
8227;BMP180;4154;48.810;9.012;2022-09-21T00:56:27;97829.00;;;7.00
8227;BMP180;4154;48.810;9.012;2022-09-21T00:58:54;97826.00;;;7.10
8227;BMP180;4154;48.810;9.012;2022-09-21T01:01:20;97836.00;;;7.10
8227;BMP180;4154;48.810;9.012;2022-09-21T01:03:48;97833.00;;;7.00
8227;BMP180;4154;48.810;9.012;2022-09-21T01:06:18;97830.00;;;7.00
8227;BMP180;4154;48.810;9.012;2022-09-21T01:08:49;97829.00;;;7.10
8227;BMP180;4154;48.810;9.012;2022-09-21T01:17:37;97827.00;;;6.90
8227;BMP180;4154;48.810;9.012;2022-09-21T01:20:50;97831.00;;;6.80
8227;BMP180;4154;48.810;9.012;2022-09-21T01:24:32;97829.00;;;6.90
8227;BMP180;4154;48.810;9.012;2022-09-21T01:30:09;97838.00;;;6.90
8227;BMP180;4154;48.810;9.012;2022-09-21T01:35:34;97836.00;;;6.90
8227;BMP180;4154;48.810;9.012;2022-09-21T01:38:17;97829.00;;;6.90
8227;BMP180;4154;48.810;9.012;2022-09-21T01:40:50;97841.00;;;6.90
8227;BMP180;4154;48.810;9.012;2022-09-21T01:43:31;97838.00;;;6.90
8227;BMP180;4154;48.810;9.012;2022-09-21T01:46:00;97843.00;;;6.70
8227;BMP180;4154;48.810;9.012;2022-09-21T01:48:37;97835.00;;;6.70
8227;BMP180;4154;48.810;9.012;2022-09-21T01:51:09;97836.00;;;6.70
8227;BMP180;4154;48.810;9.012;2022-09-21T01:53:54;97835.00;;;6.70
8227;BMP180;4154;48.810;9.012;2022-09-21T01:56:37;97836.00;;;6.60
8227;BMP180;4154;48.810;9.012;2022-09-21T02:02:14;97841.00;;;6.50
8227;BMP180;4154;48.810;9.012;2022-09-21T02:04:42;97838.00;;;6.50
8227;BMP180;4154;48.810;9.012;2022-09-21T02:07:08;97834.00;;;6.50
8227;BMP180;4154;48.810;9.012;2022-09-21T02:09:35;97841.00;;;6.50
8227;BMP180;4154;48.810;9.012;2022-09-21T02:12:02;97835.00;;;6.50
8227;BMP180;4154;48.810;9.012;2022-09-21T02:14:30;97834.00;;;6.40
8227;BMP180;4154;48.810;9.012;2022-09-21T02:20:31;97836.00;;;6.30
8227;BMP180;4154;48.810;9.012;2022-09-21T02:23:36;97829.00;;;6.30
8227;BMP180;4154;48.810;9.012;2022-09-21T02:26:26;97833.00;;;6.40
8227;BMP180;4154;48.810;9.012;2022-09-21T02:31:54;97831.00;;;6.20
8227;BMP180;4154;48.810;9.012;2022-09-21T02:34:43;97824.00;;;6.30
8227;BMP180;4154;48.810;9.012;2022-09-21T02:37:39;97822.00;;;6.30
8227;BMP180;4154;48.810;9.012;2022-09-21T02:40:34;97816.00;;;6.20
8227;BMP180;4154;48.810;9.012;2022-09-21T02:43:36;97822.00;;;6.20
8227;BMP180;4154;48.810;9.012;2022-09-21T02:46:15;97820.00;;;6.20
8227;BMP180;4154;48.810;9.012;2022-09-21T02:48:56;97824.00;;;6.10
8227;BMP180;4154;48.810;9.012;2022-09-21T02:51:33;97831.00;;;6.20
8227;BMP180;4154;48.810;9.012;2022-09-21T02:54:05;97828.00;;;6.20
8227;BMP180;4154;48.810;9.012;2022-09-21T02:56:34;97819.00;;;6.20
8227;BMP180;4154;48.810;9.012;2022-09-21T02:59:03;97822.00;;;6.20
8227;BMP180;4154;48.810;9.012;2022-09-21T03:01:31;97812.00;;;6.20
8227;BMP180;4154;48.810;9.012;2022-09-21T03:03:57;97817.00;;;6.10
8227;BMP180;4154;48.810;9.012;2022-09-21T03:06:24;97810.00;;;6.10
8227;BMP180;4154;48.810;9.012;2022-09-21T03:08:49;97811.00;;;6.00
8227;BMP180;4154;48.810;9.012;2022-09-21T03:11:17;97813.00;;;6.00
8227;BMP180;4154;48.810;9.012;2022-09-21T03:13:43;97802.00;;;6.00
8227;BMP180;4154;48.810;9.012;2022-09-21T03:16:11;97803.00;;;6.00
8227;BMP180;4154;48.810;9.012;2022-09-21T03:18:37;97805.00;;;6.00
8227;BMP180;4154;48.810;9.012;2022-09-21T03:21:05;97800.00;;;5.90
8227;BMP180;4154;48.810;9.012;2022-09-21T03:23:31;97799.00;;;5.90
8227;BMP180;4154;48.810;9.012;2022-09-21T03:25:56;97813.00;;;5.90
8227;BMP180;4154;48.810;9.012;2022-09-21T03:28:23;97818.00;;;5.90
8227;BMP180;4154;48.810;9.012;2022-09-21T03:30:50;97814.00;;;5.90
8227;BMP180;4154;48.810;9.012;2022-09-21T03:33:18;97827.00;;;5.90
8227;BMP180;4154;48.810;9.012;2022-09-21T03:35:46;97819.00;;;6.00
8227;BMP180;4154;48.810;9.012;2022-09-21T03:38:12;97817.00;;;6.00
8227;BMP180;4154;48.810;9.012;2022-09-21T03:40:38;97821.00;;;6.00
8227;BMP180;4154;48.810;9.012;2022-09-21T03:43:04;97825.00;;;6.10
8227;BMP180;4154;48.810;9.012;2022-09-21T03:45:29;97832.00;;;6.00
8227;BMP180;4154;48.810;9.012;2022-09-21T03:48:00;97823.00;;;6.00
8227;BMP180;4154;48.810;9.012;2022-09-21T03:50:28;97831.00;;;6.10
8227;BMP180;4154;48.810;9.012;2022-09-21T03:52:55;97833.00;;;6.10
8227;BMP180;4154;48.810;9.012;2022-09-21T03:55:22;97830.00;;;6.10
8227;BMP180;4154;48.810;9.012;2022-09-21T03:57:48;97829.00;;;6.00
8227;BMP180;4154;48.810;9.012;2022-09-21T04:00:14;97824.00;;;5.90
8227;BMP180;4154;48.810;9.012;2022-09-21T04:02:40;97823.00;;;5.70
8227;BMP180;4154;48.810;9.012;2022-09-21T04:05:10;97828.00;;;5.70
8227;BMP180;4154;48.810;9.012;2022-09-21T04:07:36;97832.00;;;5.70
8227;BMP180;4154;48.810;9.012;2022-09-21T04:10:06;97834.00;;;5.60
8227;BMP180;4154;48.810;9.012;2022-09-21T04:12:34;97834.00;;;5.70
8227;BMP180;4154;48.810;9.012;2022-09-21T04:15:01;97833.00;;;5.60
8227;BMP180;4154;48.810;9.012;2022-09-21T04:17:27;97842.00;;;5.50
8227;BMP180;4154;48.810;9.012;2022-09-21T04:19:53;97833.00;;;5.60
8227;BMP180;4154;48.810;9.012;2022-09-21T04:22:19;97835.00;;;5.70
8227;BMP180;4154;48.810;9.012;2022-09-21T04:24:44;97852.00;;;5.70
8227;BMP180;4154;48.810;9.012;2022-09-21T04:27:11;97844.00;;;5.70
8227;BMP180;4154;48.810;9.012;2022-09-21T04:29:37;97839.00;;;5.70
8227;BMP180;4154;48.810;9.012;2022-09-21T04:32:04;97846.00;;;5.70
8227;BMP180;4154;48.810;9.012;2022-09-21T04:34:30;97832.00;;;5.70
8227;BMP180;4154;48.810;9.012;2022-09-21T04:36:57;97840.00;;;5.70
8227;BMP180;4154;48.810;9.012;2022-09-21T04:39:24;97847.00;;;5.70
8227;BMP180;4154;48.810;9.012;2022-09-21T04:41:51;97858.00;;;5.70
8227;BMP180;4154;48.810;9.012;2022-09-21T04:44:17;97849.00;;;5.70
8227;BMP180;4154;48.810;9.012;2022-09-21T04:46:44;97841.00;;;5.70
8227;BMP180;4154;48.810;9.012;2022-09-21T04:49:10;97839.00;;;5.70
8227;BMP180;4154;48.810;9.012;2022-09-21T04:51:36;97848.00;;;5.60
8227;BMP180;4154;48.810;9.012;2022-09-21T04:54:02;97844.00;;;5.50
8227;BMP180;4154;48.810;9.012;2022-09-21T04:56:29;97844.00;;;5.50
8227;BMP180;4154;48.810;9.012;2022-09-21T04:58:54;97859.00;;;5.50
8227;BMP180;4154;48.810;9.012;2022-09-21T05:01:20;97861.00;;;5.50
8227;BMP180;4154;48.810;9.012;2022-09-21T05:03:46;97863.00;;;5.40
8227;BMP180;4154;48.810;9.012;2022-09-21T05:06:12;97859.00;;;5.30
8227;BMP180;4154;48.810;9.012;2022-09-21T05:08:38;97861.00;;;5.30
8227;BMP180;4154;48.810;9.012;2022-09-21T05:11:24;97867.00;;;5.30
8227;BMP180;4154;48.810;9.012;2022-09-21T05:13:50;97865.00;;;5.30
8227;BMP180;4154;48.810;9.012;2022-09-21T05:16:17;97870.00;;;5.40
8227;BMP180;4154;48.810;9.012;2022-09-21T05:18:44;97868.00;;;5.40
8227;BMP180;4154;48.810;9.012;2022-09-21T05:21:14;97857.00;;;5.30
8227;BMP180;4154;48.810;9.012;2022-09-21T05:23:42;97864.00;;;5.40
8227;BMP180;4154;48.810;9.012;2022-09-21T05:26:08;97867.00;;;5.40
8227;BMP180;4154;48.810;9.012;2022-09-21T05:28:34;97868.00;;;5.40
8227;BMP180;4154;48.810;9.012;2022-09-21T05:31:29;97867.00;;;5.60
8227;BMP180;4154;48.810;9.012;2022-09-21T05:37:12;97865.00;;;5.50
8227;BMP180;4154;48.810;9.012;2022-09-21T05:39:43;97864.00;;;5.40
8227;BMP180;4154;48.810;9.012;2022-09-21T05:42:10;97866.00;;;5.50
8227;BMP180;4154;48.810;9.012;2022-09-21T05:44:37;97869.00;;;5.70
8227;BMP180;4154;48.810;9.012;2022-09-21T05:47:55;97868.00;;;5.60
8227;BMP180;4154;48.810;9.012;2022-09-21T05:56:08;97880.00;;;5.50
8227;BMP180;4154;48.810;9.012;2022-09-21T05:59:42;97875.00;;;5.50
8227;BMP180;4154;48.810;9.012;2022-09-21T06:02:05;97872.00;;;5.50
8227;BMP180;4154;48.810;9.012;2022-09-21T06:04:34;97878.00;;;5.40
8227;BMP180;4154;48.810;9.012;2022-09-21T06:07:00;97885.00;;;5.50
8227;BMP180;4154;48.810;9.012;2022-09-21T06:09:26;97888.00;;;5.50
8227;BMP180;4154;48.810;9.012;2022-09-21T06:11:52;97883.00;;;5.50
8227;BMP180;4154;48.810;9.012;2022-09-21T06:14:19;97884.00;;;5.50
8227;BMP180;4154;48.810;9.012;2022-09-21T06:16:50;97894.00;;;5.60
8227;BMP180;4154;48.810;9.012;2022-09-21T06:19:16;97887.00;;;5.60
8227;BMP180;4154;48.810;9.012;2022-09-21T06:21:42;97885.00;;;5.60
8227;BMP180;4154;48.810;9.012;2022-09-21T06:24:09;97887.00;;;5.70
8227;BMP180;4154;48.810;9.012;2022-09-21T06:26:35;97897.00;;;5.70
8227;BMP180;4154;48.810;9.012;2022-09-21T06:29:00;97899.00;;;5.80
8227;BMP180;4154;48.810;9.012;2022-09-21T06:31:27;97892.00;;;5.80
8227;BMP180;4154;48.810;9.012;2022-09-21T06:33:54;97885.00;;;5.90
8227;BMP180;4154;48.810;9.012;2022-09-21T06:36:19;97893.00;;;6.00
8227;BMP180;4154;48.810;9.012;2022-09-21T06:38:45;97891.00;;;6.00
8227;BMP180;4154;48.810;9.012;2022-09-21T06:41:11;97892.00;;;6.10
8227;BMP180;4154;48.810;9.012;2022-09-21T06:43:37;97896.00;;;6.10
8227;BMP180;4154;48.810;9.012;2022-09-21T06:46:03;97900.00;;;6.20
8227;BMP180;4154;48.810;9.012;2022-09-21T06:48:31;97906.00;;;6.30
8227;BMP180;4154;48.810;9.012;2022-09-21T06:51:04;97901.00;;;6.30
8227;BMP180;4154;48.810;9.012;2022-09-21T06:53:32;97900.00;;;6.40
8227;BMP180;4154;48.810;9.012;2022-09-21T06:56:09;97906.00;;;6.40
8227;BMP180;4154;48.810;9.012;2022-09-21T06:58:35;97896.00;;;6.50
8227;BMP180;4154;48.810;9.012;2022-09-21T07:03:32;97910.00;;;6.60
8227;BMP180;4154;48.810;9.012;2022-09-21T07:05:58;97912.00;;;6.70
8227;BMP180;4154;48.810;9.012;2022-09-21T07:08:23;97897.00;;;6.70
8227;BMP180;4154;48.810;9.012;2022-09-21T07:10:49;97891.00;;;6.80
8227;BMP180;4154;48.810;9.012;2022-09-21T07:13:15;97895.00;;;6.80
8227;BMP180;4154;48.810;9.012;2022-09-21T07:15:43;97904.00;;;6.90
8227;BMP180;4154;48.810;9.012;2022-09-21T07:18:13;97907.00;;;7.00
8227;BMP180;4154;48.810;9.012;2022-09-21T07:20:39;97902.00;;;7.00
8227;BMP180;4154;48.810;9.012;2022-09-21T07:23:17;97906.00;;;7.10
8227;BMP180;4154;48.810;9.012;2022-09-21T07:25:48;97903.00;;;7.20
8227;BMP180;4154;48.810;9.012;2022-09-21T07:28:15;97912.00;;;7.20
8227;BMP180;4154;48.810;9.012;2022-09-21T07:30:41;97904.00;;;7.30
8227;BMP180;4154;48.810;9.012;2022-09-21T07:33:08;97919.00;;;7.40
8227;BMP180;4154;48.810;9.012;2022-09-21T07:35:34;97912.00;;;7.50
8227;BMP180;4154;48.810;9.012;2022-09-21T07:38:04;97913.00;;;7.60
8227;BMP180;4154;48.810;9.012;2022-09-21T07:40:31;97920.00;;;7.60
8227;BMP180;4154;48.810;9.012;2022-09-21T07:42:58;97930.00;;;7.80
8227;BMP180;4154;48.810;9.012;2022-09-21T07:45:25;97938.00;;;7.80
8227;BMP180;4154;48.810;9.012;2022-09-21T07:47:51;97924.00;;;7.90
8227;BMP180;4154;48.810;9.012;2022-09-21T07:50:20;97931.00;;;8.00
8227;BMP180;4154;48.810;9.012;2022-09-21T07:52:46;97928.00;;;8.10
8227;BMP180;4154;48.810;9.012;2022-09-21T07:55:13;97924.00;;;8.20
8227;BMP180;4154;48.810;9.012;2022-09-21T07:57:39;97938.00;;;8.30
8227;BMP180;4154;48.810;9.012;2022-09-21T08:00:23;97932.00;;;8.40
8227;BMP180;4154;48.810;9.012;2022-09-21T08:02:50;97931.00;;;8.50
8227;BMP180;4154;48.810;9.012;2022-09-21T08:05:16;97934.00;;;8.50
8227;BMP180;4154;48.810;9.012;2022-09-21T08:07:41;97928.00;;;8.60
8227;BMP180;4154;48.810;9.012;2022-09-21T08:10:08;97939.00;;;8.70
8227;BMP180;4154;48.810;9.012;2022-09-21T08:12:34;97931.00;;;8.80
8227;BMP180;4154;48.810;9.012;2022-09-21T08:15:00;97928.00;;;8.90
8227;BMP180;4154;48.810;9.012;2022-09-21T08:17:26;97934.00;;;8.90
8227;BMP180;4154;48.810;9.012;2022-09-21T08:19:52;97927.00;;;9.00
8227;BMP180;4154;48.810;9.012;2022-09-21T08:22:19;97935.00;;;9.00
8227;BMP180;4154;48.810;9.012;2022-09-21T08:24:47;97944.00;;;9.10
8227;BMP180;4154;48.810;9.012;2022-09-21T08:27:13;97937.00;;;9.30
8227;BMP180;4154;48.810;9.012;2022-09-21T08:29:38;97934.00;;;9.30
8227;BMP180;4154;48.810;9.012;2022-09-21T08:32:04;97939.00;;;9.40
8227;BMP180;4154;48.810;9.012;2022-09-21T08:34:30;97932.00;;;9.40
8227;BMP180;4154;48.810;9.012;2022-09-21T08:36:56;97938.00;;;9.50
8227;BMP180;4154;48.810;9.012;2022-09-21T08:39:22;97929.00;;;9.50
8227;BMP180;4154;48.810;9.012;2022-09-21T08:42:07;97937.00;;;9.70
8227;BMP180;4154;48.810;9.012;2022-09-21T08:45:03;97938.00;;;9.80
8227;BMP180;4154;48.810;9.012;2022-09-21T08:47:44;97943.00;;;9.80
8227;BMP180;4154;48.810;9.012;2022-09-21T08:50:43;97931.00;;;9.90
8227;BMP180;4154;48.810;9.012;2022-09-21T08:53:33;97939.00;;;10.00
8227;BMP180;4154;48.810;9.012;2022-09-21T08:56:01;97934.00;;;10.00
8227;BMP180;4154;48.810;9.012;2022-09-21T08:58:30;97934.00;;;10.10
8227;BMP180;4154;48.810;9.012;2022-09-21T09:01:47;97934.00;;;10.10
8227;BMP180;4154;48.810;9.012;2022-09-21T09:05:05;97930.00;;;10.20
8227;BMP180;4154;48.810;9.012;2022-09-21T09:13:55;97920.00;;;10.40
8227;BMP180;4154;48.810;9.012;2022-09-21T09:19:24;97924.00;;;10.60
8227;BMP180;4154;48.810;9.012;2022-09-21T09:21:54;97930.00;;;10.60
8227;BMP180;4154;48.810;9.012;2022-09-21T09:24:57;97927.00;;;10.70
8227;BMP180;4154;48.810;9.012;2022-09-21T09:27:38;97920.00;;;10.80
8227;BMP180;4154;48.810;9.012;2022-09-21T09:30:23;97921.00;;;10.90
8227;BMP180;4154;48.810;9.012;2022-09-21T09:33:11;97920.00;;;10.90
8227;BMP180;4154;48.810;9.012;2022-09-21T09:36:11;97916.00;;;11.10
8227;BMP180;4154;48.810;9.012;2022-09-21T09:39:09;97908.00;;;11.10
8227;BMP180;4154;48.810;9.012;2022-09-21T09:42:06;97917.00;;;11.10
8227;BMP180;4154;48.810;9.012;2022-09-21T09:50:34;97910.00;;;11.40
8227;BMP180;4154;48.810;9.012;2022-09-21T09:53:13;97905.00;;;11.40
8227;BMP180;4154;48.810;9.012;2022-09-21T09:55:45;97900.00;;;11.40
8227;BMP180;4154;48.810;9.012;2022-09-21T09:58:45;97904.00;;;11.50
8227;BMP180;4154;48.810;9.012;2022-09-21T10:01:40;97896.00;;;11.60
8227;BMP180;4154;48.810;9.012;2022-09-21T10:04:10;97891.00;;;11.70
8227;BMP180;4154;48.810;9.012;2022-09-21T10:06:37;97891.00;;;11.70
8227;BMP180;4154;48.810;9.012;2022-09-21T10:09:29;97898.00;;;11.70
8227;BMP180;4154;48.810;9.012;2022-09-21T10:12:23;97894.00;;;11.80
8227;BMP180;4154;48.810;9.012;2022-09-21T10:14:56;97876.00;;;11.90
8227;BMP180;4154;48.810;9.012;2022-09-21T10:17:26;97880.00;;;11.90
8227;BMP180;4154;48.810;9.012;2022-09-21T10:20:00;97881.00;;;11.90
8227;BMP180;4154;48.810;9.012;2022-09-21T10:22:27;97885.00;;;12.00
8227;BMP180;4154;48.810;9.012;2022-09-21T10:24:55;97879.00;;;12.10
8227;BMP180;4154;48.810;9.012;2022-09-21T10:27:33;97887.00;;;12.10
8227;BMP180;4154;48.810;9.012;2022-09-21T10:29:59;97879.00;;;12.10
8227;BMP180;4154;48.810;9.012;2022-09-21T10:32:29;97878.00;;;12.30
8227;BMP180;4154;48.810;9.012;2022-09-21T10:37:32;97876.00;;;12.40
8227;BMP180;4154;48.810;9.012;2022-09-21T10:39:59;97882.00;;;12.50
8227;BMP180;4154;48.810;9.012;2022-09-21T10:42:36;97870.00;;;12.60
8227;BMP180;4154;48.810;9.012;2022-09-21T10:45:16;97870.00;;;12.60
8227;BMP180;4154;48.810;9.012;2022-09-21T10:48:07;97864.00;;;12.70
8227;BMP180;4154;48.810;9.012;2022-09-21T10:50:41;97866.00;;;12.90
8227;BMP180;4154;48.810;9.012;2022-09-21T10:55:38;97863.00;;;13.00
8227;BMP180;4154;48.810;9.012;2022-09-21T10:58:10;97859.00;;;13.00
8227;BMP180;4154;48.810;9.012;2022-09-21T11:00:49;97871.00;;;13.20
8227;BMP180;4154;48.810;9.012;2022-09-21T11:06:15;97860.00;;;13.20
8227;BMP180;4154;48.810;9.012;2022-09-21T11:09:04;97863.00;;;13.40
8227;BMP180;4154;48.810;9.012;2022-09-21T11:11:56;97866.00;;;13.40
8227;BMP180;4154;48.810;9.012;2022-09-21T11:15:08;97855.00;;;13.60
8227;BMP180;4154;48.810;9.012;2022-09-21T11:24:19;97870.00;;;13.60
8227;BMP180;4154;48.810;9.012;2022-09-21T11:26:59;97868.00;;;13.70
8227;BMP180;4154;48.810;9.012;2022-09-21T11:35:41;97844.00;;;13.80
8227;BMP180;4154;48.810;9.012;2022-09-21T11:38:44;97847.00;;;13.90
8227;BMP180;4154;48.810;9.012;2022-09-21T11:44:53;97844.00;;;14.10
8227;BMP180;4154;48.810;9.012;2022-09-21T11:48:09;97838.00;;;14.20
8227;BMP180;4154;48.810;9.012;2022-09-21T12:00:21;97828.00;;;14.60
8227;BMP180;4154;48.810;9.012;2022-09-21T12:11:27;97821.00;;;15.10
8227;BMP180;4154;48.810;9.012;2022-09-21T12:14:10;97813.00;;;15.10
8227;BMP180;4154;48.810;9.012;2022-09-21T12:17:07;97813.00;;;14.90
8227;BMP180;4154;48.810;9.012;2022-09-21T12:22:46;97817.00;;;14.80
8227;BMP180;4154;48.810;9.012;2022-09-21T12:25:23;97817.00;;;14.80
8227;BMP180;4154;48.810;9.012;2022-09-21T12:28:06;97813.00;;;14.80
8227;BMP180;4154;48.810;9.012;2022-09-21T12:30:40;97822.00;;;14.80
8227;BMP180;4154;48.810;9.012;2022-09-21T12:33:50;97810.00;;;15.00
8227;BMP180;4154;48.810;9.012;2022-09-21T12:36:28;97808.00;;;15.00
8227;BMP180;4154;48.810;9.012;2022-09-21T12:42:20;97805.00;;;15.30
8227;BMP180;4154;48.810;9.012;2022-09-21T12:45:28;97804.00;;;15.30
8227;BMP180;4154;48.810;9.012;2022-09-21T12:48:01;97792.00;;;15.30
8227;BMP180;4154;48.810;9.012;2022-09-21T12:50:44;97806.00;;;15.50
8227;BMP180;4154;48.810;9.012;2022-09-21T12:53:19;97801.00;;;15.60
8227;BMP180;4154;48.810;9.012;2022-09-21T12:56:06;97809.00;;;15.60
8227;BMP180;4154;48.810;9.012;2022-09-21T13:02:16;97801.00;;;15.30
8227;BMP180;4154;48.810;9.012;2022-09-21T13:04:52;97791.00;;;15.30
8227;BMP180;4154;48.810;9.012;2022-09-21T13:10:19;97793.00;;;15.30
8227;BMP180;4154;48.810;9.012;2022-09-21T13:12:57;97789.00;;;15.30
8227;BMP180;4154;48.810;9.012;2022-09-21T13:15:41;97796.00;;;15.20
8227;BMP180;4154;48.810;9.012;2022-09-21T13:18:29;97794.00;;;15.10
8227;BMP180;4154;48.810;9.012;2022-09-21T13:21:19;97790.00;;;15.00
8227;BMP180;4154;48.810;9.012;2022-09-21T13:24:05;97786.00;;;14.90
8227;BMP180;4154;48.810;9.012;2022-09-21T13:26:42;97795.00;;;14.80
8227;BMP180;4154;48.810;9.012;2022-09-21T13:32:49;97795.00;;;14.60
8227;BMP180;4154;48.810;9.012;2022-09-21T13:34:48;97791.00;;;14.50
8227;BMP180;4154;48.810;9.012;2022-09-21T13:45:01;97783.00;;;14.70
8227;BMP180;4154;48.810;9.012;2022-09-21T13:47:54;97775.00;;;14.90
8227;BMP180;4154;48.810;9.012;2022-09-21T13:50:35;97768.00;;;14.90
8227;BMP180;4154;48.810;9.012;2022-09-21T13:53:15;97773.00;;;14.80
8227;BMP180;4154;48.810;9.012;2022-09-21T13:55:52;97769.00;;;14.80
8227;BMP180;4154;48.810;9.012;2022-09-21T13:58:28;97765.00;;;15.00
8227;BMP180;4154;48.810;9.012;2022-09-21T14:01:01;97759.00;;;15.00
8227;BMP180;4154;48.810;9.012;2022-09-21T14:03:37;97767.00;;;15.10
8227;BMP180;4154;48.810;9.012;2022-09-21T14:09:05;97768.00;;;14.90
8227;BMP180;4154;48.810;9.012;2022-09-21T14:11:42;97757.00;;;14.90
8227;BMP180;4154;48.810;9.012;2022-09-21T14:14:32;97759.00;;;15.00
8227;BMP180;4154;48.810;9.012;2022-09-21T14:17:00;97760.00;;;15.00
8227;BMP180;4154;48.810;9.012;2022-09-21T14:24:49;97755.00;;;15.30
8227;BMP180;4154;48.810;9.012;2022-09-21T14:27:42;97758.00;;;15.20
8227;BMP180;4154;48.810;9.012;2022-09-21T14:30:31;97752.00;;;15.20
8227;BMP180;4154;48.810;9.012;2022-09-21T14:33:11;97750.00;;;15.10
8227;BMP180;4154;48.810;9.012;2022-09-21T14:35:43;97749.00;;;15.00
8227;BMP180;4154;48.810;9.012;2022-09-21T14:38:26;97750.00;;;15.00
8227;BMP180;4154;48.810;9.012;2022-09-21T14:41:00;97743.00;;;15.00
8227;BMP180;4154;48.810;9.012;2022-09-21T14:43:31;97740.00;;;15.00
8227;BMP180;4154;48.810;9.012;2022-09-21T14:46:38;97742.00;;;15.00
8227;BMP180;4154;48.810;9.012;2022-09-21T14:51:51;97742.00;;;15.00
8227;BMP180;4154;48.810;9.012;2022-09-21T15:00:22;97729.00;;;15.00
8227;BMP180;4154;48.810;9.012;2022-09-21T15:09:18;97729.00;;;15.00
8227;BMP180;4154;48.810;9.012;2022-09-21T15:12:16;97723.00;;;15.00
8227;BMP180;4154;48.810;9.012;2022-09-21T15:14:55;97730.00;;;15.00
8227;BMP180;4154;48.810;9.012;2022-09-21T15:17:28;97726.00;;;15.00
8227;BMP180;4154;48.810;9.012;2022-09-21T15:19:59;97722.00;;;15.00
8227;BMP180;4154;48.810;9.012;2022-09-21T15:22:42;97722.00;;;15.00
8227;BMP180;4154;48.810;9.012;2022-09-21T15:25:12;97726.00;;;15.00
8227;BMP180;4154;48.810;9.012;2022-09-21T15:27:42;97721.00;;;15.00
8227;BMP180;4154;48.810;9.012;2022-09-21T15:30:22;97731.00;;;14.90
8227;BMP180;4154;48.810;9.012;2022-09-21T15:33:01;97715.00;;;14.90
8227;BMP180;4154;48.810;9.012;2022-09-21T15:35:30;97722.00;;;14.90
8227;BMP180;4154;48.810;9.012;2022-09-21T15:37:58;97722.00;;;14.80
8227;BMP180;4154;48.810;9.012;2022-09-21T15:40:33;97713.00;;;14.80
8227;BMP180;4154;48.810;9.012;2022-09-21T15:43:16;97718.00;;;14.80
8227;BMP180;4154;48.810;9.012;2022-09-21T15:48:25;97726.00;;;14.70
8227;BMP180;4154;48.810;9.012;2022-09-21T15:51:31;97725.00;;;14.60
8227;BMP180;4154;48.810;9.012;2022-09-21T15:54:39;97714.00;;;14.50
8227;BMP180;4154;48.810;9.012;2022-09-21T15:57:38;97728.00;;;14.40
8227;BMP180;4154;48.810;9.012;2022-09-21T16:00:28;97729.00;;;14.30
8227;BMP180;4154;48.810;9.012;2022-09-21T16:05:52;97727.00;;;14.20
8227;BMP180;4154;48.810;9.012;2022-09-21T16:10:51;97726.00;;;14.10
8227;BMP180;4154;48.810;9.012;2022-09-21T16:13:23;97726.00;;;14.10
8227;BMP180;4154;48.810;9.012;2022-09-21T16:16:12;97722.00;;;14.00
8227;BMP180;4154;48.810;9.012;2022-09-21T16:18:49;97717.00;;;14.00
8227;BMP180;4154;48.810;9.012;2022-09-21T16:21:24;97721.00;;;13.90
8227;BMP180;4154;48.810;9.012;2022-09-21T16:23:54;97734.00;;;13.90
8227;BMP180;4154;48.810;9.012;2022-09-21T16:26:29;97724.00;;;13.80
8227;BMP180;4154;48.810;9.012;2022-09-21T16:29:25;97736.00;;;13.70
8227;BMP180;4154;48.810;9.012;2022-09-21T16:34:46;97740.00;;;13.60
8227;BMP180;4154;48.810;9.012;2022-09-21T16:39:59;97741.00;;;13.50
8227;BMP180;4154;48.810;9.012;2022-09-21T16:42:28;97743.00;;;13.50
8227;BMP180;4154;48.810;9.012;2022-09-21T16:44:58;97739.00;;;13.40
8227;BMP180;4154;48.810;9.012;2022-09-21T16:47:27;97751.00;;;13.40
8227;BMP180;4154;48.810;9.012;2022-09-21T16:49:58;97750.00;;;13.40
8227;BMP180;4154;48.810;9.012;2022-09-21T16:52:29;97753.00;;;13.30
8227;BMP180;4154;48.810;9.012;2022-09-21T16:54:56;97755.00;;;13.30
8227;BMP180;4154;48.810;9.012;2022-09-21T16:57:24;97747.00;;;13.20
8227;BMP180;4154;48.810;9.012;2022-09-21T16:59:51;97744.00;;;13.20
8227;BMP180;4154;48.810;9.012;2022-09-21T17:02:17;97743.00;;;13.20
8227;BMP180;4154;48.810;9.012;2022-09-21T17:04:43;97760.00;;;13.10
8227;BMP180;4154;48.810;9.012;2022-09-21T17:07:11;97751.00;;;13.00
8227;BMP180;4154;48.810;9.012;2022-09-21T17:09:40;97755.00;;;13.00
8227;BMP180;4154;48.810;9.012;2022-09-21T17:12:13;97744.00;;;12.90
8227;BMP180;4154;48.810;9.012;2022-09-21T17:14:39;97753.00;;;12.80
8227;BMP180;4154;48.810;9.012;2022-09-21T17:17:16;97753.00;;;12.80
8227;BMP180;4154;48.810;9.012;2022-09-21T17:19:44;97759.00;;;12.70
8227;BMP180;4154;48.810;9.012;2022-09-21T17:22:12;97752.00;;;12.60
8227;BMP180;4154;48.810;9.012;2022-09-21T17:24:49;97756.00;;;12.60
8227;BMP180;4154;48.810;9.012;2022-09-21T17:27:18;97758.00;;;12.50
8227;BMP180;4154;48.810;9.012;2022-09-21T17:29:45;97761.00;;;12.50
8227;BMP180;4154;48.810;9.012;2022-09-21T17:32:22;97767.00;;;12.40
8227;BMP180;4154;48.810;9.012;2022-09-21T17:37:37;97759.00;;;12.30
8227;BMP180;4154;48.810;9.012;2022-09-21T17:40:04;97755.00;;;12.20
8227;BMP180;4154;48.810;9.012;2022-09-21T17:42:38;97756.00;;;12.20
8227;BMP180;4154;48.810;9.012;2022-09-21T17:45:25;97767.00;;;12.10
8227;BMP180;4154;48.810;9.012;2022-09-21T17:47:54;97765.00;;;12.10
8227;BMP180;4154;48.810;9.012;2022-09-21T17:50:24;97773.00;;;12.00
8227;BMP180;4154;48.810;9.012;2022-09-21T17:52:52;97779.00;;;12.00
8227;BMP180;4154;48.810;9.012;2022-09-21T17:55:47;97775.00;;;11.90
8227;BMP180;4154;48.810;9.012;2022-09-21T17:58:47;97772.00;;;11.90